createdAt,value
2022-12-16T00:01:19.800Z,-11.00
2022-12-16T00:03:55.996Z,-11.00
2022-12-16T00:06:32.321Z,-11.10
2022-12-16T00:09:03.145Z,-11.10
2022-12-16T00:11:32.336Z,-11.20
2022-12-16T00:13:59.158Z,-11.20
2022-12-16T00:16:26.166Z,-11.10
2022-12-16T00:18:53.172Z,-11.10
2022-12-16T00:21:20.767Z,-11.00
2022-12-16T00:23:47.873Z,-10.90
2022-12-16T00:26:15.029Z,-10.70
2022-12-16T00:28:43.850Z,-10.60
2022-12-16T00:31:13.195Z,-10.40
2022-12-16T00:33:44.066Z,-10.50
2022-12-16T00:36:11.819Z,-10.50
2022-12-16T00:38:39.848Z,-10.40
2022-12-16T00:41:08.402Z,-10.40
2022-12-16T00:43:35.620Z,-10.40
2022-12-16T00:46:02.975Z,-10.50
2022-12-16T00:48:29.915Z,-10.50
2022-12-16T00:50:56.713Z,-10.50
2022-12-16T00:53:25.192Z,-10.50
2022-12-16T00:56:02.171Z,-10.50
2022-12-16T00:58:29.064Z,-10.50
2022-12-16T01:00:55.957Z,-10.60
2022-12-16T01:03:23.163Z,-10.60
2022-12-16T01:05:50.225Z,-10.70
2022-12-16T01:08:17.638Z,-10.70
2022-12-16T01:10:55.370Z,-10.70
2022-12-16T01:13:24.547Z,-10.70
2022-12-16T01:15:51.895Z,-10.70
2022-12-16T01:18:19.509Z,-10.60
2022-12-16T01:20:46.329Z,-10.50
2022-12-16T01:23:13.182Z,-10.40
2022-12-16T01:25:40.067Z,-10.20
2022-12-16T01:28:06.950Z,-10.10
2022-12-16T01:30:33.947Z,-9.90
2022-12-16T01:33:02.898Z,-9.80
2022-12-16T01:38:19.800Z,-9.70
2022-12-16T01:40:46.649Z,-9.60
2022-12-16T01:43:15.199Z,-9.60
2022-12-16T01:45:42.296Z,-9.60
2022-12-16T01:48:37.856Z,-9.60
2022-12-16T01:51:32.854Z,-9.80
2022-12-16T01:54:22.045Z,-10.00
2022-12-16T01:56:57.061Z,-10.10
2022-12-16T01:59:28.838Z,-10.20
2022-12-16T02:01:56.498Z,-10.30
2022-12-16T02:04:23.975Z,-10.40
2022-12-16T02:06:51.877Z,-10.50
2022-12-16T02:09:19.602Z,-10.50
2022-12-16T02:12:18.039Z,-10.60
2022-12-16T02:15:20.055Z,-10.70
2022-12-16T02:18:18.985Z,-10.70
2022-12-16T02:21:07.859Z,-10.70
2022-12-16T02:24:21.393Z,-10.70
2022-12-16T02:27:46.670Z,-10.80
2022-12-16T02:30:27.839Z,-10.90
2022-12-16T02:33:25.301Z,-11.00
2022-12-16T02:36:30.475Z,-10.90
2022-12-16T02:39:08.993Z,-11.00
2022-12-16T02:42:00.327Z,-11.00
2022-12-16T02:44:51.648Z,-11.00
2022-12-16T02:47:19.650Z,-11.00
2022-12-16T02:49:48.417Z,-11.00
2022-12-16T02:52:19.823Z,-11.00
2022-12-16T02:54:48.978Z,-11.00
2022-12-16T02:57:40.781Z,-11.00
2022-12-16T03:00:21.739Z,-11.00
2022-12-16T03:03:02.693Z,-11.00
2022-12-16T03:05:52.517Z,-11.00
2022-12-16T03:08:34.315Z,-11.00
2022-12-16T03:11:08.367Z,-11.00
2022-12-16T03:13:49.654Z,-11.00
2022-12-16T03:16:23.575Z,-11.00
2022-12-16T03:18:57.732Z,-11.00
2022-12-16T03:21:33.726Z,-11.00
2022-12-16T03:24:08.694Z,-11.00
2022-12-16T03:27:02.670Z,-10.90
2022-12-16T03:30:07.684Z,-10.80
2022-12-16T03:32:53.173Z,-10.70
2022-12-16T03:35:31.164Z,-10.60
2022-12-16T03:38:02.346Z,-10.60
2022-12-16T03:40:31.481Z,-10.50
2022-12-16T03:43:01.378Z,-10.50
2022-12-16T03:45:38.433Z,-10.50
2022-12-16T03:48:09.763Z,-10.40
2022-12-16T03:50:38.569Z,-10.40
2022-12-16T03:53:06.980Z,-10.50
2022-12-16T03:55:34.180Z,-10.50
2022-12-16T03:58:01.090Z,-10.60
2022-12-16T04:00:27.946Z,-10.60
2022-12-16T04:02:55.130Z,-10.70
2022-12-16T04:05:22.970Z,-10.70
2022-12-16T04:07:57.332Z,-10.70
2022-12-16T04:10:45.852Z,-10.70
2022-12-16T04:13:31.816Z,-10.70
2022-12-16T04:16:17.579Z,-10.70
2022-12-16T04:19:04.160Z,-10.80
2022-12-16T04:21:49.849Z,-10.90
2022-12-16T04:24:20.225Z,-11.00
2022-12-16T04:27:10.485Z,-11.00
2022-12-16T04:30:00.622Z,-11.10
2022-12-16T04:32:48.127Z,-11.20
2022-12-16T04:35:34.178Z,-11.20
2022-12-16T04:38:19.654Z,-11.30
2022-12-16T04:41:05.683Z,-11.30
2022-12-16T04:43:58.404Z,-11.30
2022-12-16T04:46:43.994Z,-11.50
2022-12-16T04:49:30.039Z,-11.60
2022-12-16T04:52:18.421Z,-11.60
2022-12-16T04:55:03.638Z,-11.60
2022-12-16T04:57:49.217Z,-11.70
2022-12-16T05:00:37.311Z,-11.70
2022-12-16T05:03:22.747Z,-11.70
2022-12-16T05:06:08.139Z,-11.70
2022-12-16T05:08:57.500Z,-11.70
2022-12-16T05:11:42.815Z,-11.70
2022-12-16T05:14:28.182Z,-11.80
2022-12-16T05:17:14.197Z,-11.60
2022-12-16T05:19:59.786Z,-11.70
2022-12-16T05:22:45.730Z,-11.90
2022-12-16T05:25:31.240Z,-11.90
2022-12-16T05:28:16.584Z,-12.00
2022-12-16T05:31:02.260Z,-12.10
2022-12-16T05:33:47.942Z,-12.20
2022-12-16T05:36:34.367Z,-12.30
2022-12-16T05:39:19.616Z,-12.30
2022-12-16T05:42:05.027Z,-12.40
2022-12-16T05:44:54.599Z,-12.40
2022-12-16T05:47:41.012Z,-12.50
2022-12-16T05:50:27.301Z,-12.60
2022-12-16T05:53:16.140Z,-12.60
2022-12-16T05:56:01.790Z,-12.60
2022-12-16T05:58:48.892Z,-12.60
2022-12-16T06:01:38.270Z,-12.70
2022-12-16T06:04:24.141Z,-12.60
2022-12-16T06:07:09.436Z,-12.60
2022-12-16T06:09:57.146Z,-12.70
2022-12-16T06:12:45.732Z,-12.70
2022-12-16T06:15:31.058Z,-12.60
2022-12-16T06:18:16.581Z,-12.70
2022-12-16T06:21:02.775Z,-12.70
2022-12-16T06:23:48.076Z,-12.70
2022-12-16T06:26:37.934Z,-12.80
2022-12-16T06:29:23.440Z,-12.90
2022-12-16T06:32:08.722Z,-12.80
2022-12-16T06:34:54.608Z,-12.90
2022-12-16T06:37:40.335Z,-12.90
2022-12-16T06:40:27.017Z,-12.90
2022-12-16T06:43:15.466Z,-12.90
2022-12-16T06:46:01.160Z,-12.90
2022-12-16T06:48:46.706Z,-12.90
2022-12-16T06:51:34.745Z,-12.90
2022-12-16T06:54:20.303Z,-12.70
2022-12-16T06:57:16.543Z,-12.90
2022-12-16T07:00:02.263Z,-12.80
2022-12-16T07:02:48.184Z,-12.70
2022-12-16T07:09:33.464Z,-12.90
2022-12-16T07:12:19.314Z,-12.90
2022-12-16T07:15:09.167Z,-12.90
2022-12-16T07:17:54.865Z,-12.90
2022-12-16T07:20:40.511Z,-12.90
2022-12-16T07:23:25.964Z,-12.90
2022-12-16T07:26:11.783Z,-12.90
2022-12-16T07:28:57.475Z,-12.90
2022-12-16T07:31:42.910Z,-12.90
2022-12-16T07:34:28.769Z,-12.90
2022-12-16T07:37:20.644Z,-12.90
2022-12-16T07:40:05.776Z,-12.90
2022-12-16T07:42:51.532Z,-12.90
2022-12-16T07:45:44.811Z,-12.80
2022-12-16T07:48:30.837Z,-12.80
2022-12-16T07:51:16.356Z,-12.80
2022-12-16T07:54:04.238Z,-12.80
2022-12-16T07:56:49.903Z,-12.80
2022-12-16T07:59:35.634Z,-12.70
2022-12-16T08:02:21.861Z,-12.70
2022-12-16T08:05:09.129Z,-12.60
2022-12-16T08:07:58.457Z,-12.60
2022-12-16T08:10:44.174Z,-12.60
2022-12-16T08:13:29.848Z,-12.60
2022-12-16T08:16:15.562Z,-12.50
2022-12-16T08:19:10.541Z,-12.40
2022-12-16T08:21:58.098Z,-12.40
2022-12-16T08:24:46.977Z,-12.30
2022-12-16T08:27:37.223Z,-12.20
2022-12-16T08:30:23.613Z,-12.20
2022-12-16T08:33:18.381Z,-12.10
2022-12-16T08:36:06.387Z,-12.10
2022-12-16T08:38:52.763Z,-12.10
2022-12-16T08:41:38.646Z,-12.10
2022-12-16T08:44:24.292Z,-12.00
2022-12-16T08:47:10.054Z,-11.90
2022-12-16T08:49:57.857Z,-11.90
2022-12-16T08:52:47.836Z,-11.80
2022-12-16T08:55:33.318Z,-11.70
2022-12-16T08:58:18.722Z,-11.60
2022-12-16T09:01:07.574Z,-11.60
2022-12-16T09:03:55.352Z,-11.50
2022-12-16T09:06:41.489Z,-11.40
2022-12-16T09:09:28.873Z,-11.20
2022-12-16T09:12:17.517Z,-11.00
2022-12-16T09:15:03.138Z,-10.70
2022-12-16T09:17:48.815Z,-10.40
2022-12-16T09:20:34.977Z,-10.30
2022-12-16T09:23:24.206Z,-10.10
2022-12-16T09:26:10.090Z,-9.80
2022-12-16T09:28:58.921Z,-9.30
2022-12-16T09:31:44.280Z,-8.70
2022-12-16T09:34:29.905Z,-7.70
2022-12-16T09:37:22.244Z,-7.00
2022-12-16T09:40:07.497Z,-6.70
2022-12-16T09:43:30.887Z,-6.90
2022-12-16T09:46:42.701Z,-7.10
2022-12-16T09:50:00.768Z,-7.40
2022-12-16T09:52:49.661Z,-7.50
2022-12-16T09:56:12.058Z,-7.60
2022-12-16T10:41:25.914Z,-6.50
2022-12-16T10:44:16.227Z,-6.40
2022-12-16T10:47:01.788Z,-6.30
2022-12-16T10:49:52.308Z,-6.20
2022-12-16T10:52:40.519Z,-6.10
2022-12-16T10:56:20.959Z,-6.00
2022-12-16T10:59:12.660Z,-5.90
2022-12-16T11:01:58.716Z,-5.90
2022-12-16T11:04:51.343Z,-5.80
2022-12-16T11:07:59.328Z,-5.80
2022-12-16T11:11:00.215Z,-5.70
2022-12-16T11:13:57.386Z,-5.60
2022-12-16T11:16:48.241Z,-5.60
2022-12-16T11:19:46.565Z,-5.40
2022-12-16T11:22:41.949Z,-5.40
2022-12-16T11:25:38.734Z,-5.30
2022-12-16T11:28:30.273Z,-5.10
2022-12-16T11:31:23.713Z,-5.00
2022-12-16T11:34:14.664Z,-4.90
2022-12-16T11:37:03.033Z,-4.80
2022-12-16T11:39:54.937Z,-4.70
2022-12-16T11:42:46.539Z,-4.60
2022-12-16T11:45:41.519Z,-4.40
2022-12-16T11:49:14.575Z,-4.30
2022-12-16T11:52:34.925Z,-4.20
2022-12-16T11:56:04.443Z,-4.10
2022-12-16T11:59:10.056Z,-4.00
2022-12-16T12:02:29.784Z,-3.80
2022-12-16T12:05:23.439Z,-3.90
2022-12-16T12:08:34.094Z,-3.90
2022-12-16T12:11:47.813Z,-3.80
2022-12-16T12:15:04.001Z,-3.80
2022-12-16T12:18:04.357Z,-3.70
2022-12-16T12:21:20.603Z,-3.70
2022-12-16T12:24:34.389Z,-3.60
2022-12-16T12:27:51.389Z,-3.60
2022-12-16T12:30:42.248Z,-3.50
2022-12-16T12:33:49.360Z,-3.40
2022-12-16T12:37:12.967Z,-3.00
2022-12-16T12:40:22.662Z,-3.00
2022-12-16T12:43:15.899Z,-2.90
2022-12-16T12:46:30.893Z,-2.90
2022-12-16T12:49:52.359Z,-2.90
2022-12-16T12:53:26.421Z,-2.80
2022-12-16T12:56:49.332Z,-2.80
2022-12-16T13:00:33.138Z,-2.80
2022-12-16T13:03:54.249Z,-2.90
2022-12-16T13:06:43.496Z,-2.90
2022-12-16T13:09:52.173Z,-2.90
2022-12-16T13:12:44.859Z,-2.80
2022-12-16T13:15:57.656Z,-2.80
2022-12-16T13:18:50.555Z,-2.70
2022-12-16T13:21:54.698Z,-2.60
2022-12-16T13:24:41.942Z,-2.60
2022-12-16T13:27:36.090Z,-2.60
2022-12-16T13:30:41.322Z,-2.40
2022-12-16T13:33:46.971Z,-2.50
2022-12-16T13:36:36.652Z,-2.50
2022-12-16T13:39:49.115Z,-2.50
2022-12-16T13:43:31.404Z,-2.50
2022-12-16T13:46:20.055Z,-2.50
2022-12-16T13:49:05.301Z,-2.50
2022-12-16T13:51:56.460Z,-2.50
2022-12-16T13:55:10.597Z,-2.60
2022-12-16T13:58:02.801Z,-2.60
2022-12-16T14:00:55.509Z,-2.60
2022-12-16T14:04:03.117Z,-2.60
2022-12-16T14:06:53.603Z,-2.60
2022-12-16T14:09:55.900Z,-2.60
2022-12-16T14:13:49.936Z,-2.60
2022-12-16T14:16:53.310Z,-2.60
2022-12-16T14:20:01.905Z,-2.70
2022-12-16T14:23:47.100Z,-2.80
2022-12-16T14:26:24.381Z,-2.80
2022-12-16T14:29:11.193Z,-2.90
2022-12-16T14:32:00.595Z,-2.80
2022-12-16T14:34:48.765Z,-2.90
2022-12-16T14:37:57.003Z,-3.00
2022-12-16T14:40:49.644Z,-3.10
2022-12-16T14:43:42.774Z,-3.10
2022-12-16T14:47:00.027Z,-3.10
2022-12-16T14:49:48.269Z,-3.00
2022-12-16T14:52:45.402Z,-3.00
2022-12-16T14:55:39.055Z,-3.00
2022-12-16T14:58:39.771Z,-3.10
2022-12-16T15:01:40.128Z,-3.20
2022-12-16T15:04:40.459Z,-3.20
2022-12-16T15:07:34.777Z,-3.30
2022-12-16T15:10:20.809Z,-3.40
2022-12-16T15:13:08.262Z,-3.50
2022-12-16T15:16:04.752Z,-3.50
2022-12-16T15:19:05.104Z,-3.50
2022-12-16T15:21:54.510Z,-3.60
2022-12-16T15:24:54.640Z,-3.80
2022-12-16T15:27:40.108Z,-4.00
2022-12-16T15:31:03.511Z,-4.20
2022-12-16T15:33:58.504Z,-4.40
2022-12-16T15:36:54.547Z,-4.50
2022-12-16T15:39:59.903Z,-4.70
2022-12-16T15:42:51.168Z,-4.80
2022-12-16T15:45:36.560Z,-4.80
2022-12-16T15:48:38.287Z,-4.90
2022-12-16T15:51:48.560Z,-5.00
2022-12-16T15:54:39.041Z,-5.00
2022-12-16T15:57:52.347Z,-4.90
2022-12-16T16:00:48.252Z,-4.90
2022-12-16T16:03:50.042Z,-5.00
2022-12-16T16:06:42.202Z,-5.20
2022-12-16T16:09:47.276Z,-5.20
2022-12-16T16:12:39.271Z,-5.30
2022-12-16T16:15:28.391Z,-5.30
2022-12-16T16:18:19.496Z,-5.30
2022-12-16T16:21:05.296Z,-5.50
2022-12-16T16:23:51.322Z,-5.60
2022-12-16T16:26:41.875Z,-5.70
2022-12-16T16:29:35.771Z,-5.70
2022-12-16T16:32:21.036Z,-5.80
2022-12-16T16:35:09.345Z,-5.80
2022-12-16T16:37:54.843Z,-5.90
2022-12-16T16:40:57.644Z,-5.90
2022-12-16T16:43:46.041Z,-6.00
2022-12-16T16:46:55.821Z,-6.10
2022-12-16T16:49:46.811Z,-6.20
2022-12-16T16:52:40.261Z,-6.20
2022-12-16T16:55:32.864Z,-6.30
2022-12-16T16:58:18.378Z,-6.40
2022-12-16T17:01:04.520Z,-6.40
2022-12-16T17:03:51.972Z,-6.40
2022-12-16T17:06:37.939Z,-6.50
2022-12-16T17:09:27.736Z,-6.60
2022-12-16T17:12:13.175Z,-6.60
2022-12-16T17:14:58.756Z,-6.70
2022-12-16T17:17:44.355Z,-6.80
2022-12-16T17:20:35.577Z,-6.90
2022-12-16T17:23:20.791Z,-7.00
2022-12-16T17:26:06.101Z,-7.00
2022-12-16T17:29:11.391Z,-7.00
2022-12-16T17:31:57.092Z,-7.10
2022-12-16T17:34:42.781Z,-7.00
2022-12-16T17:37:28.569Z,-7.10
2022-12-16T17:40:13.746Z,-7.20
2022-12-16T17:42:59.086Z,-7.30
2022-12-16T17:45:44.677Z,-7.30
2022-12-16T17:48:29.982Z,-7.30
2022-12-16T17:51:15.565Z,-7.40
2022-12-16T17:54:21.635Z,-7.40
2022-12-16T17:57:09.495Z,-7.50
2022-12-16T17:59:58.463Z,-7.60
2022-12-16T18:02:44.047Z,-7.70
2022-12-16T18:05:37.689Z,-7.70
2022-12-16T18:08:26.428Z,-7.80
2022-12-16T18:11:13.926Z,-7.80
2022-12-16T18:14:17.205Z,-7.90
2022-12-16T18:17:04.114Z,-7.90
2022-12-16T18:19:49.526Z,-8.00
2022-12-16T18:22:35.778Z,-8.00
2022-12-16T18:25:21.612Z,-8.00
2022-12-16T18:28:10.141Z,-8.10
2022-12-16T18:30:59.105Z,-8.10
2022-12-16T18:33:44.659Z,-8.30
2022-12-16T18:36:30.082Z,-8.20
2022-12-16T18:39:15.566Z,-8.30
2022-12-16T18:42:05.637Z,-8.30
2022-12-16T18:44:54.868Z,-8.40
2022-12-16T18:47:42.797Z,-8.50
2022-12-16T18:50:32.789Z,-8.60
2022-12-16T18:53:21.544Z,-8.60
2022-12-16T18:56:07.202Z,-8.60
2022-12-16T18:58:54.639Z,-8.70
2022-12-16T19:01:40.191Z,-8.70
2022-12-16T19:04:25.415Z,-8.70
2022-12-16T19:07:11.103Z,-8.80
2022-12-16T19:09:57.100Z,-8.90
2022-12-16T19:12:42.331Z,-8.80
2022-12-16T19:15:29.510Z,-9.10
2022-12-16T19:18:14.718Z,-9.10
2022-12-16T19:21:00.322Z,-9.20
2022-12-16T19:23:48.880Z,-9.20
2022-12-16T19:26:36.578Z,-9.20
2022-12-16T19:29:21.875Z,-9.20
2022-12-16T19:32:08.443Z,-9.10
2022-12-16T19:34:58.337Z,-9.10
2022-12-16T19:37:43.778Z,-9.20
2022-12-16T19:40:30.048Z,-9.20
2022-12-16T19:43:16.356Z,-9.20
2022-12-16T19:46:01.939Z,-9.10
2022-12-16T19:48:47.444Z,-9.30
2022-12-16T19:51:33.255Z,-9.30
2022-12-16T19:54:19.052Z,-9.40
2022-12-16T19:57:04.288Z,-9.40
2022-12-16T19:59:49.623Z,-9.40
2022-12-16T20:02:35.452Z,-9.40
2022-12-16T20:05:23.302Z,-9.50
2022-12-16T20:08:09.439Z,-9.50
2022-12-16T20:10:56.287Z,-9.60
2022-12-16T20:13:43.938Z,-9.60
2022-12-16T20:16:41.391Z,-9.60
2022-12-16T20:19:26.960Z,-9.70
2022-12-16T20:22:16.327Z,-9.80
2022-12-16T20:25:02.366Z,-9.80
2022-12-16T20:27:47.952Z,-9.80
2022-12-16T20:30:33.610Z,-9.80
2022-12-16T20:33:19.172Z,-9.80
2022-12-16T20:36:18.496Z,-9.90
2022-12-16T20:39:05.408Z,-10.00
2022-12-16T20:41:51.766Z,-10.00
2022-12-16T20:44:37.151Z,-10.00
2022-12-16T20:47:22.520Z,-10.00
2022-12-16T20:50:08.227Z,-10.10
2022-12-16T20:52:54.898Z,-10.20
2022-12-16T20:55:42.454Z,-10.20
2022-12-16T20:58:27.964Z,-10.30
2022-12-16T21:01:18.109Z,-10.20
2022-12-16T21:04:04.016Z,-10.30
2022-12-16T21:06:49.159Z,-10.30
2022-12-16T21:09:34.487Z,-10.40
2022-12-16T21:12:20.014Z,-10.40
2022-12-16T21:15:05.493Z,-10.50
2022-12-16T21:17:50.775Z,-10.40
2022-12-16T21:20:37.290Z,-10.50
2022-12-16T21:23:25.802Z,-10.50
2022-12-16T21:26:11.329Z,-10.50
2022-12-16T21:28:57.405Z,-10.60
2022-12-16T21:31:43.088Z,-10.70
2022-12-16T21:34:29.038Z,-10.80
2022-12-16T21:37:14.680Z,-10.90
2022-12-16T21:40:00.014Z,-10.90
2022-12-16T21:42:45.431Z,-10.90
2022-12-16T21:45:32.016Z,-10.90
2022-12-16T21:48:18.360Z,-10.90
2022-12-16T21:51:11.001Z,-10.90
2022-12-16T21:53:56.866Z,-10.80
2022-12-16T21:56:42.551Z,-10.90
2022-12-16T21:59:28.160Z,-10.90
2022-12-16T22:02:13.697Z,-10.90
2022-12-16T22:04:59.453Z,-10.90
2022-12-16T22:07:46.989Z,-11.00
2022-12-16T22:10:32.493Z,-11.00
2022-12-16T22:13:18.399Z,-11.00
2022-12-16T22:16:17.670Z,-11.00
2022-12-16T22:19:04.068Z,-11.00
2022-12-16T22:21:50.916Z,-11.00
2022-12-16T22:24:36.913Z,-11.10
2022-12-16T22:27:22.538Z,-11.10
2022-12-16T22:30:07.763Z,-11.10
2022-12-16T22:32:53.101Z,-11.10
2022-12-16T22:35:42.131Z,-11.20
2022-12-16T22:38:27.670Z,-11.20
2022-12-16T22:41:18.055Z,-11.30
2022-12-16T22:44:04.736Z,-11.30
2022-12-16T22:46:53.189Z,-11.30
2022-12-16T22:49:42.877Z,-11.40
2022-12-16T22:52:28.478Z,-11.50
2022-12-16T22:55:14.080Z,-11.50
2022-12-16T22:58:01.566Z,-11.50
2022-12-16T23:00:47.189Z,-11.50
2022-12-16T23:03:37.274Z,-11.40
2022-12-16T23:06:26.791Z,-11.50
2022-12-16T23:09:12.307Z,-11.50
2022-12-16T23:12:00.203Z,-11.40
2022-12-16T23:14:45.948Z,-11.50
2022-12-16T23:17:31.496Z,-11.40
2022-12-16T23:20:16.909Z,-11.40
2022-12-16T23:23:02.438Z,-11.40
2022-12-16T23:25:47.794Z,-11.50
2022-12-16T23:28:33.510Z,-11.50
2022-12-16T23:31:19.281Z,-11.50
2022-12-16T23:34:05.173Z,-11.50
2022-12-16T23:36:50.961Z,-11.60
2022-12-16T23:39:38.875Z,-11.60
2022-12-16T23:42:24.431Z,-11.70
2022-12-16T23:45:09.815Z,-11.80
2022-12-16T23:47:55.178Z,-11.80
2022-12-16T23:50:41.733Z,-11.80
2022-12-16T23:53:29.946Z,-11.80
2022-12-16T23:56:18.604Z,-11.70
2022-12-16T23:59:06.718Z,-11.70
